sensor_id;sensor_type;location;lat;lon;timestamp;temperature;humidity
16064;DHT22;8136;53.172;8.256;2024-01-16T08:58:56;1.50;99.90
16064;DHT22;8136;53.172;8.256;2024-01-16T09:12:20;1.00;99.90
16064;DHT22;8136;53.172;8.256;2024-01-16T09:18:46;1.00;99.90
16064;DHT22;8136;53.172;8.256;2024-01-16T09:24:13;1.10;99.90
16064;DHT22;8136;53.172;8.256;2024-01-16T09:26:40;1.00;99.90
16064;DHT22;8136;53.172;8.256;2024-01-16T09:29:08;1.10;99.90
16064;DHT22;8136;53.172;8.256;2024-01-16T09:31:36;1.00;99.90
16064;DHT22;8136;53.172;8.256;2024-01-16T09:34:39;1.10;99.90
16064;DHT22;8136;53.172;8.256;2024-01-16T09:47:41;1.20;99.90
16064;DHT22;8136;53.172;8.256;2024-01-16T09:50:09;1.20;99.90
16064;DHT22;8136;53.172;8.256;2024-01-16T09:52:36;1.30;99.90
16064;DHT22;8136;53.172;8.256;2024-01-16T09:55:05;1.30;99.90
16064;DHT22;8136;53.172;8.256;2024-01-16T09:57:32;1.30;99.90
16064;DHT22;8136;53.172;8.256;2024-01-16T10:00:00;1.40;99.90
16064;DHT22;8136;53.172;8.256;2024-01-16T10:02:28;1.40;99.90
16064;DHT22;8136;53.172;8.256;2024-01-16T10:04:56;1.50;99.90
16064;DHT22;8136;53.172;8.256;2024-01-16T10:07:25;1.50;99.90
16064;DHT22;8136;53.172;8.256;2024-01-16T10:09:56;1.50;99.90
16064;DHT22;8136;53.172;8.256;2024-01-16T10:12:23;1.60;99.90
16064;DHT22;8136;53.172;8.256;2024-01-16T10:14:50;1.60;99.90
16064;DHT22;8136;53.172;8.256;2024-01-16T10:17:17;1.70;99.90
16064;DHT22;8136;53.172;8.256;2024-01-16T10:19:49;1.60;99.90
16064;DHT22;8136;53.172;8.256;2024-01-16T10:22:19;1.60;99.90
16064;DHT22;8136;53.172;8.256;2024-01-16T10:24:48;1.60;99.90
16064;DHT22;8136;53.172;8.256;2024-01-16T10:27:16;1.70;99.90
16064;DHT22;8136;53.172;8.256;2024-01-16T10:29:54;1.70;99.90
16064;DHT22;8136;53.172;8.256;2024-01-16T10:32:29;1.70;99.90
16064;DHT22;8136;53.172;8.256;2024-01-16T10:35:03;1.60;99.90
16064;DHT22;8136;53.172;8.256;2024-01-16T10:37:31;1.70;99.90
16064;DHT22;8136;53.172;8.256;2024-01-16T10:40:10;1.70;99.90
16064;DHT22;8136;53.172;8.256;2024-01-16T10:42:37;1.70;99.90
16064;DHT22;8136;53.172;8.256;2024-01-16T10:45:05;1.70;99.90
16064;DHT22;8136;53.172;8.256;2024-01-16T10:47:32;1.70;99.90
16064;DHT22;8136;53.172;8.256;2024-01-16T10:50:03;1.70;99.90
16064;DHT22;8136;53.172;8.256;2024-01-16T10:52:33;1.70;99.90
16064;DHT22;8136;53.172;8.256;2024-01-16T10:55:03;1.70;99.90
16064;DHT22;8136;53.172;8.256;2024-01-16T10:57:38;1.70;99.90
16064;DHT22;8136;53.172;8.256;2024-01-16T11:00:09;1.70;99.90
16064;DHT22;8136;53.172;8.256;2024-01-16T11:02:43;1.70;99.90
16064;DHT22;8136;53.172;8.256;2024-01-16T11:05:12;1.70;99.90
16064;DHT22;8136;53.172;8.256;2024-01-16T11:07:40;1.70;99.90
16064;DHT22;8136;53.172;8.256;2024-01-16T11:10:09;1.70;99.90
16064;DHT22;8136;53.172;8.256;2024-01-16T11:12:39;1.70;99.90
16064;DHT22;8136;53.172;8.256;2024-01-16T11:15:08;1.70;99.90
16064;DHT22;8136;53.172;8.256;2024-01-16T11:17:38;1.60;99.90
16064;DHT22;8136;53.172;8.256;2024-01-16T11:20:06;1.60;99.90
16064;DHT22;8136;53.172;8.256;2024-01-16T11:22:38;1.60;99.90
16064;DHT22;8136;53.172;8.256;2024-01-16T11:25:10;1.60;99.90
16064;DHT22;8136;53.172;8.256;2024-01-16T11:27:39;1.60;99.90
16064;DHT22;8136;53.172;8.256;2024-01-16T11:30:07;1.60;99.90
16064;DHT22;8136;53.172;8.256;2024-01-16T11:32:35;1.60;99.90
16064;DHT22;8136;53.172;8.256;2024-01-16T11:35:03;1.70;99.90
16064;DHT22;8136;53.172;8.256;2024-01-16T11:37:30;1.70;99.90
16064;DHT22;8136;53.172;8.256;2024-01-16T11:40:20;1.70;99.90
16064;DHT22;8136;53.172;8.256;2024-01-16T11:42:48;1.70;99.90
16064;DHT22;8136;53.172;8.256;2024-01-16T11:45:48;1.80;99.90
16064;DHT22;8136;53.172;8.256;2024-01-16T11:48:16;1.80;99.90
16064;DHT22;8136;53.172;8.256;2024-01-16T11:50:43;1.80;99.90
16064;DHT22;8136;53.172;8.256;2024-01-16T11:53:10;1.70;99.90
16064;DHT22;8136;53.172;8.256;2024-01-16T11:55:57;1.80;99.90
16064;DHT22;8136;53.172;8.256;2024-01-16T11:58:43;1.80;99.90
16064;DHT22;8136;53.172;8.256;2024-01-16T12:01:12;1.80;99.90
16064;DHT22;8136;53.172;8.256;2024-01-16T12:03:39;1.80;99.90
16064;DHT22;8136;53.172;8.256;2024-01-16T12:06:06;1.80;99.90
16064;DHT22;8136;53.172;8.256;2024-01-16T12:08:34;1.80;99.90
16064;DHT22;8136;53.172;8.256;2024-01-16T12:11:03;1.80;99.90
16064;DHT22;8136;53.172;8.256;2024-01-16T12:13:30;1.80;99.90
16064;DHT22;8136;53.172;8.256;2024-01-16T12:16:01;1.80;99.90
16064;DHT22;8136;53.172;8.256;2024-01-16T12:18:29;1.80;99.90
16064;DHT22;8136;53.172;8.256;2024-01-16T12:20:56;1.90;99.90
16064;DHT22;8136;53.172;8.256;2024-01-16T12:23:24;1.90;99.90
16064;DHT22;8136;53.172;8.256;2024-01-16T12:25:52;1.90;99.90
16064;DHT22;8136;53.172;8.256;2024-01-16T12:28:21;1.90;99.90
16064;DHT22;8136;53.172;8.256;2024-01-16T12:30:49;1.90;99.90
16064;DHT22;8136;53.172;8.256;2024-01-16T12:33:22;2.00;99.90
16064;DHT22;8136;53.172;8.256;2024-01-16T12:35:49;2.00;99.90
16064;DHT22;8136;53.172;8.256;2024-01-16T12:38:17;2.00;99.90
16064;DHT22;8136;53.172;8.256;2024-01-16T12:40:46;2.00;99.90
16064;DHT22;8136;53.172;8.256;2024-01-16T12:43:16;2.00;99.90
16064;DHT22;8136;53.172;8.256;2024-01-16T12:45:44;2.00;99.90
16064;DHT22;8136;53.172;8.256;2024-01-16T12:48:11;2.00;99.90
16064;DHT22;8136;53.172;8.256;2024-01-16T12:50:39;2.00;99.90
16064;DHT22;8136;53.172;8.256;2024-01-16T12:53:07;2.00;99.90
16064;DHT22;8136;53.172;8.256;2024-01-16T12:55:36;2.00;99.90
16064;DHT22;8136;53.172;8.256;2024-01-16T12:58:16;2.00;99.90
16064;DHT22;8136;53.172;8.256;2024-01-16T13:00:43;2.00;99.90
16064;DHT22;8136;53.172;8.256;2024-01-16T13:03:17;2.00;99.90
16064;DHT22;8136;53.172;8.256;2024-01-16T13:05:52;2.00;99.90
16064;DHT22;8136;53.172;8.256;2024-01-16T13:08:20;1.90;99.90
16064;DHT22;8136;53.172;8.256;2024-01-16T13:11:02;1.90;99.90
16064;DHT22;8136;53.172;8.256;2024-01-16T13:13:29;2.00;99.90
16064;DHT22;8136;53.172;8.256;2024-01-16T13:15:56;1.90;99.90
16064;DHT22;8136;53.172;8.256;2024-01-16T13:18:25;1.90;99.90
16064;DHT22;8136;53.172;8.256;2024-01-16T13:20:55;1.90;99.90
16064;DHT22;8136;53.172;8.256;2024-01-16T13:23:23;1.90;99.90
16064;DHT22;8136;53.172;8.256;2024-01-16T13:25:52;1.80;99.90
16064;DHT22;8136;53.172;8.256;2024-01-16T13:28:20;1.80;99.90
16064;DHT22;8136;53.172;8.256;2024-01-16T13:30:48;1.90;99.90
16064;DHT22;8136;53.172;8.256;2024-01-16T13:33:15;1.80;99.90
16064;DHT22;8136;53.172;8.256;2024-01-16T13:35:43;1.80;99.90
16064;DHT22;8136;53.172;8.256;2024-01-16T13:38:13;1.80;99.90
16064;DHT22;8136;53.172;8.256;2024-01-16T13:40:41;1.80;99.90
16064;DHT22;8136;53.172;8.256;2024-01-16T13:43:08;1.80;99.90
16064;DHT22;8136;53.172;8.256;2024-01-16T13:45:35;1.90;99.90
16064;DHT22;8136;53.172;8.256;2024-01-16T13:48:02;1.80;99.90
16064;DHT22;8136;53.172;8.256;2024-01-16T13:50:30;1.70;99.90
16064;DHT22;8136;53.172;8.256;2024-01-16T13:52:58;1.70;99.90
16064;DHT22;8136;53.172;8.256;2024-01-16T13:55:27;1.70;99.90
16064;DHT22;8136;53.172;8.256;2024-01-16T13:57:54;1.70;99.90
16064;DHT22;8136;53.172;8.256;2024-01-16T14:00:21;1.70;99.90
16064;DHT22;8136;53.172;8.256;2024-01-16T14:02:48;1.70;99.90
16064;DHT22;8136;53.172;8.256;2024-01-16T14:05:16;1.70;99.90
16064;DHT22;8136;53.172;8.256;2024-01-16T14:07:44;1.70;99.90
16064;DHT22;8136;53.172;8.256;2024-01-16T14:10:14;1.70;99.90
16064;DHT22;8136;53.172;8.256;2024-01-16T14:12:43;1.70;99.90
16064;DHT22;8136;53.172;8.256;2024-01-16T14:15:11;1.70;99.90
16064;DHT22;8136;53.172;8.256;2024-01-16T14:17:44;1.60;99.90
16064;DHT22;8136;53.172;8.256;2024-01-16T14:20:13;1.60;99.90
16064;DHT22;8136;53.172;8.256;2024-01-16T14:22:40;1.60;99.90
16064;DHT22;8136;53.172;8.256;2024-01-16T14:25:09;1.60;99.90
16064;DHT22;8136;53.172;8.256;2024-01-16T14:27:38;1.60;99.90
16064;DHT22;8136;53.172;8.256;2024-01-16T14:30:11;1.60;99.90
16064;DHT22;8136;53.172;8.256;2024-01-16T14:32:40;1.50;99.90
16064;DHT22;8136;53.172;8.256;2024-01-16T14:35:08;1.50;99.90
16064;DHT22;8136;53.172;8.256;2024-01-16T14:37:35;1.50;99.90
16064;DHT22;8136;53.172;8.256;2024-01-16T14:40:04;1.50;99.90
16064;DHT22;8136;53.172;8.256;2024-01-16T14:42:38;1.40;99.90
16064;DHT22;8136;53.172;8.256;2024-01-16T14:45:05;1.40;99.90
16064;DHT22;8136;53.172;8.256;2024-01-16T14:47:34;1.40;99.90
16064;DHT22;8136;53.172;8.256;2024-01-16T14:50:00;1.40;99.90
16064;DHT22;8136;53.172;8.256;2024-01-16T14:52:29;1.40;99.90
16064;DHT22;8136;53.172;8.256;2024-01-16T14:54:57;1.40;99.90
16064;DHT22;8136;53.172;8.256;2024-01-16T14:57:24;1.40;99.90
16064;DHT22;8136;53.172;8.256;2024-01-16T14:59:53;1.40;99.90
16064;DHT22;8136;53.172;8.256;2024-01-16T15:02:19;1.40;99.90
16064;DHT22;8136;53.172;8.256;2024-01-16T15:04:48;1.40;99.90
16064;DHT22;8136;53.172;8.256;2024-01-16T15:07:16;1.40;99.90
16064;DHT22;8136;53.172;8.256;2024-01-16T15:09:42;1.40;99.90
16064;DHT22;8136;53.172;8.256;2024-01-16T15:12:09;1.40;99.90
16064;DHT22;8136;53.172;8.256;2024-01-16T15:14:36;1.40;99.90
16064;DHT22;8136;53.172;8.256;2024-01-16T15:17:03;1.40;99.90
16064;DHT22;8136;53.172;8.256;2024-01-16T15:19:32;1.40;99.90
16064;DHT22;8136;53.172;8.256;2024-01-16T15:22:01;1.40;99.90
16064;DHT22;8136;53.172;8.256;2024-01-16T15:24:28;1.40;99.90
16064;DHT22;8136;53.172;8.256;2024-01-16T15:26:57;1.40;99.90
16064;DHT22;8136;53.172;8.256;2024-01-16T15:29:24;1.50;99.90
16064;DHT22;8136;53.172;8.256;2024-01-16T15:31:52;1.50;99.90
16064;DHT22;8136;53.172;8.256;2024-01-16T15:34:21;1.50;99.90
16064;DHT22;8136;53.172;8.256;2024-01-16T15:36:48;1.50;99.90
16064;DHT22;8136;53.172;8.256;2024-01-16T15:39:16;1.50;99.90
16064;DHT22;8136;53.172;8.256;2024-01-16T15:41:43;1.50;99.90
16064;DHT22;8136;53.172;8.256;2024-01-16T15:44:10;1.50;99.90
16064;DHT22;8136;53.172;8.256;2024-01-16T15:46:56;1.50;99.90
16064;DHT22;8136;53.172;8.256;2024-01-16T15:49:23;1.60;99.90
16064;DHT22;8136;53.172;8.256;2024-01-16T15:51:50;1.70;99.90
16064;DHT22;8136;53.172;8.256;2024-01-16T15:54:19;1.80;99.90
16064;DHT22;8136;53.172;8.256;2024-01-16T15:56:46;1.80;99.90
16064;DHT22;8136;53.172;8.256;2024-01-16T15:59:13;1.70;99.90
16064;DHT22;8136;53.172;8.256;2024-01-16T16:01:40;1.70;99.90
16064;DHT22;8136;53.172;8.256;2024-01-16T16:04:08;1.70;99.90
16064;DHT22;8136;53.172;8.256;2024-01-16T16:06:36;1.70;99.90
16064;DHT22;8136;53.172;8.256;2024-01-16T16:09:05;1.70;99.90
16064;DHT22;8136;53.172;8.256;2024-01-16T16:11:36;1.70;99.90
16064;DHT22;8136;53.172;8.256;2024-01-16T16:14:04;1.60;99.90
16064;DHT22;8136;53.172;8.256;2024-01-16T16:16:32;1.60;99.90
16064;DHT22;8136;53.172;8.256;2024-01-16T16:18:59;1.50;99.90
16064;DHT22;8136;53.172;8.256;2024-01-16T16:21:26;1.50;99.90
16064;DHT22;8136;53.172;8.256;2024-01-16T16:23:52;1.50;99.90
16064;DHT22;8136;53.172;8.256;2024-01-16T16:26:30;1.50;99.90
16064;DHT22;8136;53.172;8.256;2024-01-16T16:29:00;1.40;99.90
16064;DHT22;8136;53.172;8.256;2024-01-16T16:31:28;1.40;99.90
16064;DHT22;8136;53.172;8.256;2024-01-16T16:33:57;1.30;99.90
16064;DHT22;8136;53.172;8.256;2024-01-16T16:36:24;1.30;99.90
16064;DHT22;8136;53.172;8.256;2024-01-16T16:38:51;1.30;99.90
16064;DHT22;8136;53.172;8.256;2024-01-16T16:41:17;1.30;99.90
16064;DHT22;8136;53.172;8.256;2024-01-16T16:43:46;1.30;99.90
16064;DHT22;8136;53.172;8.256;2024-01-16T16:46:15;1.30;99.90
16064;DHT22;8136;53.172;8.256;2024-01-16T16:48:42;1.30;99.90
16064;DHT22;8136;53.172;8.256;2024-01-16T16:51:11;1.20;99.90
16064;DHT22;8136;53.172;8.256;2024-01-16T16:53:39;1.20;99.90
16064;DHT22;8136;53.172;8.256;2024-01-16T16:56:07;1.20;99.90
16064;DHT22;8136;53.172;8.256;2024-01-16T16:58:39;1.20;99.90
16064;DHT22;8136;53.172;8.256;2024-01-16T17:01:07;1.20;99.90
16064;DHT22;8136;53.172;8.256;2024-01-16T17:03:36;1.20;99.90
16064;DHT22;8136;53.172;8.256;2024-01-16T17:06:04;1.20;99.90
16064;DHT22;8136;53.172;8.256;2024-01-16T17:08:31;1.10;99.90
16064;DHT22;8136;53.172;8.256;2024-01-16T17:10:59;1.10;99.90
16064;DHT22;8136;53.172;8.256;2024-01-16T17:13:27;1.10;99.90
16064;DHT22;8136;53.172;8.256;2024-01-16T17:15:55;1.10;99.90
16064;DHT22;8136;53.172;8.256;2024-01-16T17:18:22;1.10;99.90
16064;DHT22;8136;53.172;8.256;2024-01-16T17:20:50;1.10;99.90
16064;DHT22;8136;53.172;8.256;2024-01-16T17:23:18;1.10;99.90
16064;DHT22;8136;53.172;8.256;2024-01-16T17:25:45;1.00;99.90
16064;DHT22;8136;53.172;8.256;2024-01-16T17:28:12;1.10;99.90
16064;DHT22;8136;53.172;8.256;2024-01-16T17:30:40;1.10;99.90
16064;DHT22;8136;53.172;8.256;2024-01-16T17:33:07;1.10;99.90
16064;DHT22;8136;53.172;8.256;2024-01-16T17:35:34;1.10;99.90
16064;DHT22;8136;53.172;8.256;2024-01-16T17:38:03;1.00;99.90
16064;DHT22;8136;53.172;8.256;2024-01-16T17:40:30;0.90;99.90
16064;DHT22;8136;53.172;8.256;2024-01-16T17:42:56;0.90;99.90
16064;DHT22;8136;53.172;8.256;2024-01-16T17:45:23;0.90;99.90
16064;DHT22;8136;53.172;8.256;2024-01-16T17:47:50;1.00;99.90
16064;DHT22;8136;53.172;8.256;2024-01-16T17:50:17;0.90;99.90
16064;DHT22;8136;53.172;8.256;2024-01-16T17:52:44;0.90;99.90
16064;DHT22;8136;53.172;8.256;2024-01-16T17:55:12;0.90;99.90
16064;DHT22;8136;53.172;8.256;2024-01-16T17:57:39;0.90;99.90
16064;DHT22;8136;53.172;8.256;2024-01-16T18:00:08;0.90;99.90
16064;DHT22;8136;53.172;8.256;2024-01-16T18:02:36;0.90;99.90
16064;DHT22;8136;53.172;8.256;2024-01-16T18:05:05;0.90;99.90
16064;DHT22;8136;53.172;8.256;2024-01-16T18:07:35;0.80;99.90
16064;DHT22;8136;53.172;8.256;2024-01-16T18:10:03;0.80;99.90
16064;DHT22;8136;53.172;8.256;2024-01-16T18:12:36;0.80;99.90
16064;DHT22;8136;53.172;8.256;2024-01-16T18:15:04;0.80;99.90
16064;DHT22;8136;53.172;8.256;2024-01-16T18:17:34;0.80;99.90
16064;DHT22;8136;53.172;8.256;2024-01-16T18:20:00;0.80;99.90
16064;DHT22;8136;53.172;8.256;2024-01-16T18:22:28;0.80;99.90
16064;DHT22;8136;53.172;8.256;2024-01-16T18:24:54;0.70;99.90
16064;DHT22;8136;53.172;8.256;2024-01-16T18:27:21;0.70;99.90
16064;DHT22;8136;53.172;8.256;2024-01-16T18:29:50;0.70;99.90
16064;DHT22;8136;53.172;8.256;2024-01-16T18:32:16;0.60;99.90
16064;DHT22;8136;53.172;8.256;2024-01-16T18:34:44;0.70;99.90
16064;DHT22;8136;53.172;8.256;2024-01-16T18:37:11;0.60;99.90
16064;DHT22;8136;53.172;8.256;2024-01-16T18:39:39;0.70;99.90
16064;DHT22;8136;53.172;8.256;2024-01-16T18:42:06;0.70;99.90
16064;DHT22;8136;53.172;8.256;2024-01-16T18:44:34;0.60;99.90
16064;DHT22;8136;53.172;8.256;2024-01-16T18:47:02;0.60;99.90
16064;DHT22;8136;53.172;8.256;2024-01-16T18:49:30;0.70;99.90
16064;DHT22;8136;53.172;8.256;2024-01-16T18:51:57;0.60;99.90
16064;DHT22;8136;53.172;8.256;2024-01-16T18:54:26;0.70;99.90
16064;DHT22;8136;53.172;8.256;2024-01-16T18:56:53;0.60;99.90
16064;DHT22;8136;53.172;8.256;2024-01-16T18:59:21;0.60;99.90
16064;DHT22;8136;53.172;8.256;2024-01-16T19:01:49;0.60;99.90
16064;DHT22;8136;53.172;8.256;2024-01-16T19:04:17;0.60;99.90
16064;DHT22;8136;53.172;8.256;2024-01-16T19:06:46;0.60;99.90
16064;DHT22;8136;53.172;8.256;2024-01-16T19:09:14;0.60;99.90
16064;DHT22;8136;53.172;8.256;2024-01-16T19:11:46;0.60;99.90
16064;DHT22;8136;53.172;8.256;2024-01-16T19:14:14;0.70;99.90
16064;DHT22;8136;53.172;8.256;2024-01-16T19:16:41;0.60;99.90
16064;DHT22;8136;53.172;8.256;2024-01-16T19:19:09;0.60;99.90
16064;DHT22;8136;53.172;8.256;2024-01-16T19:21:37;0.60;99.90
16064;DHT22;8136;53.172;8.256;2024-01-16T19:24:05;0.60;99.90
16064;DHT22;8136;53.172;8.256;2024-01-16T19:26:33;0.70;99.90
16064;DHT22;8136;53.172;8.256;2024-01-16T19:28:59;0.70;99.90
16064;DHT22;8136;53.172;8.256;2024-01-16T19:31:26;0.60;99.90
16064;DHT22;8136;53.172;8.256;2024-01-16T19:33:55;0.60;99.90
16064;DHT22;8136;53.172;8.256;2024-01-16T19:36:22;0.60;99.90
16064;DHT22;8136;53.172;8.256;2024-01-16T19:38:50;0.60;99.90
16064;DHT22;8136;53.172;8.256;2024-01-16T19:41:17;0.60;99.90
16064;DHT22;8136;53.172;8.256;2024-01-16T19:43:45;0.60;99.90
16064;DHT22;8136;53.172;8.256;2024-01-16T19:46:13;0.60;99.90
16064;DHT22;8136;53.172;8.256;2024-01-16T19:48:40;0.60;99.90
16064;DHT22;8136;53.172;8.256;2024-01-16T19:51:08;0.60;99.90
16064;DHT22;8136;53.172;8.256;2024-01-16T19:53:35;0.60;99.90
16064;DHT22;8136;53.172;8.256;2024-01-16T19:56:05;0.50;99.90
16064;DHT22;8136;53.172;8.256;2024-01-16T19:58:33;0.50;99.90
16064;DHT22;8136;53.172;8.256;2024-01-16T20:01:01;0.50;99.90
16064;DHT22;8136;53.172;8.256;2024-01-16T20:03:29;0.50;99.90
16064;DHT22;8136;53.172;8.256;2024-01-16T20:05:58;0.50;99.90
16064;DHT22;8136;53.172;8.256;2024-01-16T20:08:25;0.50;99.90
16064;DHT22;8136;53.172;8.256;2024-01-16T20:10:52;0.50;99.90
16064;DHT22;8136;53.172;8.256;2024-01-16T20:13:20;0.40;99.90
16064;DHT22;8136;53.172;8.256;2024-01-16T20:15:47;0.40;99.90
16064;DHT22;8136;53.172;8.256;2024-01-16T20:18:14;0.40;99.90
16064;DHT22;8136;53.172;8.256;2024-01-16T20:20:41;0.40;99.90
16064;DHT22;8136;53.172;8.256;2024-01-16T20:23:08;0.40;99.90
16064;DHT22;8136;53.172;8.256;2024-01-16T20:25:35;0.40;99.90
16064;DHT22;8136;53.172;8.256;2024-01-16T20:28:02;0.40;99.90
16064;DHT22;8136;53.172;8.256;2024-01-16T20:30:32;0.40;99.90
16064;DHT22;8136;53.172;8.256;2024-01-16T20:33:01;0.30;99.90
16064;DHT22;8136;53.172;8.256;2024-01-16T20:35:28;0.30;99.90
16064;DHT22;8136;53.172;8.256;2024-01-16T20:37:55;0.30;99.90
16064;DHT22;8136;53.172;8.256;2024-01-16T20:40:22;0.30;99.90
16064;DHT22;8136;53.172;8.256;2024-01-16T20:42:49;0.30;99.90
16064;DHT22;8136;53.172;8.256;2024-01-16T20:45:16;0.30;99.90
16064;DHT22;8136;53.172;8.256;2024-01-16T20:47:47;0.30;99.90
16064;DHT22;8136;53.172;8.256;2024-01-16T20:50:14;0.40;99.90
16064;DHT22;8136;53.172;8.256;2024-01-16T20:52:41;0.20;99.90
16064;DHT22;8136;53.172;8.256;2024-01-16T20:55:08;0.20;99.90
16064;DHT22;8136;53.172;8.256;2024-01-16T20:57:35;0.30;99.90
16064;DHT22;8136;53.172;8.256;2024-01-16T21:00:03;0.20;99.90
16064;DHT22;8136;53.172;8.256;2024-01-16T21:02:33;0.20;99.90
16064;DHT22;8136;53.172;8.256;2024-01-16T21:05:02;0.20;99.90
16064;DHT22;8136;53.172;8.256;2024-01-16T21:07:29;0.20;99.90
16064;DHT22;8136;53.172;8.256;2024-01-16T21:09:56;0.20;99.90
16064;DHT22;8136;53.172;8.256;2024-01-16T21:12:22;0.20;99.90
16064;DHT22;8136;53.172;8.256;2024-01-16T21:14:49;0.10;99.90
16064;DHT22;8136;53.172;8.256;2024-01-16T21:17:16;0.20;99.90
16064;DHT22;8136;53.172;8.256;2024-01-16T21:19:43;0.20;99.90
16064;DHT22;8136;53.172;8.256;2024-01-16T21:22:12;0.10;99.90
16064;DHT22;8136;53.172;8.256;2024-01-16T21:24:39;0.10;99.90
16064;DHT22;8136;53.172;8.256;2024-01-16T21:27:06;0.10;99.90
16064;DHT22;8136;53.172;8.256;2024-01-16T21:29:33;0.10;99.90
16064;DHT22;8136;53.172;8.256;2024-01-16T21:32:00;0.00;99.90
16064;DHT22;8136;53.172;8.256;2024-01-16T21:34:29;0.00;99.90
16064;DHT22;8136;53.172;8.256;2024-01-16T21:36:56;0.00;99.90
16064;DHT22;8136;53.172;8.256;2024-01-16T21:39:25;0.00;99.90
16064;DHT22;8136;53.172;8.256;2024-01-16T21:41:54;0.00;99.90
16064;DHT22;8136;53.172;8.256;2024-01-16T21:44:22;0.00;99.90
16064;DHT22;8136;53.172;8.256;2024-01-16T21:46:49;0.00;99.90
16064;DHT22;8136;53.172;8.256;2024-01-16T21:49:16;0.00;99.90
16064;DHT22;8136;53.172;8.256;2024-01-16T21:51:42;0.00;99.90
16064;DHT22;8136;53.172;8.256;2024-01-16T21:54:10;0.00;99.90
16064;DHT22;8136;53.172;8.256;2024-01-16T21:56:38;0.00;99.90
16064;DHT22;8136;53.172;8.256;2024-01-16T21:59:05;-0.10;99.90
16064;DHT22;8136;53.172;8.256;2024-01-16T22:01:34;-0.10;99.90
16064;DHT22;8136;53.172;8.256;2024-01-16T22:04:01;-0.10;99.90
16064;DHT22;8136;53.172;8.256;2024-01-16T22:06:30;0.00;99.90
16064;DHT22;8136;53.172;8.256;2024-01-16T22:08:57;0.00;99.90
16064;DHT22;8136;53.172;8.256;2024-01-16T22:11:24;0.00;99.90
16064;DHT22;8136;53.172;8.256;2024-01-16T22:13:53;0.00;99.90
16064;DHT22;8136;53.172;8.256;2024-01-16T22:16:20;0.10;99.90
16064;DHT22;8136;53.172;8.256;2024-01-16T22:18:47;0.10;99.90
16064;DHT22;8136;53.172;8.256;2024-01-16T22:21:14;0.10;99.90
16064;DHT22;8136;53.172;8.256;2024-01-16T22:23:41;0.10;99.90
16064;DHT22;8136;53.172;8.256;2024-01-16T22:26:08;0.20;99.90
16064;DHT22;8136;53.172;8.256;2024-01-16T22:28:35;0.20;99.90
16064;DHT22;8136;53.172;8.256;2024-01-16T22:31:04;0.20;99.90
16064;DHT22;8136;53.172;8.256;2024-01-16T22:33:33;0.30;99.90
16064;DHT22;8136;53.172;8.256;2024-01-16T22:36:00;0.20;99.90
16064;DHT22;8136;53.172;8.256;2024-01-16T22:38:27;0.20;99.90
16064;DHT22;8136;53.172;8.256;2024-01-16T22:40:54;0.20;99.90
16064;DHT22;8136;53.172;8.256;2024-01-16T22:43:21;0.30;99.90
16064;DHT22;8136;53.172;8.256;2024-01-16T22:45:48;0.30;99.90
16064;DHT22;8136;53.172;8.256;2024-01-16T22:48:18;0.30;99.90
16064;DHT22;8136;53.172;8.256;2024-01-16T22:50:45;0.30;99.90
16064;DHT22;8136;53.172;8.256;2024-01-16T22:53:16;0.40;99.90
16064;DHT22;8136;53.172;8.256;2024-01-16T22:55:43;0.30;99.90
16064;DHT22;8136;53.172;8.256;2024-01-16T22:58:11;0.40;99.90
16064;DHT22;8136;53.172;8.256;2024-01-16T23:00:38;0.40;99.90
16064;DHT22;8136;53.172;8.256;2024-01-16T23:03:07;0.40;99.90
16064;DHT22;8136;53.172;8.256;2024-01-16T23:05:36;0.40;99.90
16064;DHT22;8136;53.172;8.256;2024-01-16T23:08:04;0.40;99.90
16064;DHT22;8136;53.172;8.256;2024-01-16T23:10:35;0.50;99.90
16064;DHT22;8136;53.172;8.256;2024-01-16T23:13:01;0.50;99.90
16064;DHT22;8136;53.172;8.256;2024-01-16T23:15:28;0.50;99.90
16064;DHT22;8136;53.172;8.256;2024-01-16T23:17:55;0.50;99.90
16064;DHT22;8136;53.172;8.256;2024-01-16T23:20:22;0.60;99.90
16064;DHT22;8136;53.172;8.256;2024-01-16T23:22:55;0.60;99.90
16064;DHT22;8136;53.172;8.256;2024-01-16T23:25:22;0.60;99.90
16064;DHT22;8136;53.172;8.256;2024-01-16T23:27:49;0.60;99.90
16064;DHT22;8136;53.172;8.256;2024-01-16T23:30:16;0.60;99.90
16064;DHT22;8136;53.172;8.256;2024-01-16T23:32:44;0.60;99.90
16064;DHT22;8136;53.172;8.256;2024-01-16T23:35:11;0.60;99.90
16064;DHT22;8136;53.172;8.256;2024-01-16T23:37:38;0.60;99.90
16064;DHT22;8136;53.172;8.256;2024-01-16T23:40:09;0.60;99.90
16064;DHT22;8136;53.172;8.256;2024-01-16T23:42:37;0.70;99.90
16064;DHT22;8136;53.172;8.256;2024-01-16T23:45:05;0.70;99.90
16064;DHT22;8136;53.172;8.256;2024-01-16T23:47:32;0.60;99.90
16064;DHT22;8136;53.172;8.256;2024-01-16T23:50:00;0.60;99.90
16064;DHT22;8136;53.172;8.256;2024-01-16T23:52:27;0.70;99.90
16064;DHT22;8136;53.172;8.256;2024-01-16T23:54:54;0.70;99.90
16064;DHT22;8136;53.172;8.256;2024-01-16T23:57:22;0.70;99.90
16064;DHT22;8136;53.172;8.256;2024-01-16T23:59:49;0.70;99.90
